createdAt,value
2016-08-31T00:00:14.294Z,1016.79
2016-08-31T00:01:14.285Z,1016.72
2016-08-31T00:02:14.271Z,1016.77
2016-08-31T00:03:14.260Z,1016.75
2016-08-31T00:04:14.247Z,1016.71
2016-08-31T00:05:14.228Z,1016.75
2016-08-31T00:06:14.222Z,1016.72
2016-08-31T00:07:14.207Z,1016.74
2016-08-31T00:08:14.190Z,1016.73
2016-08-31T00:09:14.182Z,1016.7
2016-08-31T00:10:14.168Z,1016.72
2016-08-31T00:11:14.149Z,1016.71
2016-08-31T00:12:14.141Z,1016.66
2016-08-31T00:13:14.122Z,1016.69
2016-08-31T00:14:14.116Z,1016.68
2016-08-31T00:15:14.099Z,1016.69
2016-08-31T00:16:14.096Z,1016.63
2016-08-31T00:17:14.072Z,1016.61
2016-08-31T00:18:14.062Z,1016.6
2016-08-31T00:19:14.051Z,1016.62
2016-08-31T00:20:14.028Z,1016.62
2016-08-31T00:21:14.013Z,1016.65
2016-08-31T00:22:14.009Z,1016.6
2016-08-31T00:23:13.989Z,1016.6
2016-08-31T00:24:13.978Z,1016.57
2016-08-31T00:25:13.962Z,1016.61
2016-08-31T00:26:13.951Z,1016.59
2016-08-31T00:27:13.943Z,1016.56
2016-08-31T00:28:13.921Z,1016.53
2016-08-31T00:29:13.909Z,1016.52
2016-08-31T00:30:13.902Z,1016.51
2016-08-31T00:31:13.879Z,1016.5
2016-08-31T00:32:13.870Z,1016.48
2016-08-31T00:33:13.860Z,1016.51
2016-08-31T00:34:13.841Z,1016.52
2016-08-31T00:35:13.830Z,1016.53
2016-08-31T00:36:13.819Z,1016.54
2016-08-31T00:37:13.801Z,1016.57
2016-08-31T00:38:13.790Z,1016.53
2016-08-31T00:39:13.772Z,1016.54
2016-08-31T00:40:13.762Z,1016.54
2016-08-31T00:41:13.748Z,1016.55
2016-08-31T00:42:13.736Z,1016.54
2016-08-31T00:43:13.722Z,1016.52
2016-08-31T00:44:13.706Z,1016.58
2016-08-31T00:45:13.691Z,1016.55
2016-08-31T00:46:13.679Z,1016.58
2016-08-31T00:47:13.664Z,1016.53
2016-08-31T00:48:13.659Z,1016.54
2016-08-31T00:49:13.641Z,1016.54
2016-08-31T00:50:13.622Z,1016.52
2016-08-31T00:51:13.615Z,1016.51
2016-08-31T00:52:13.600Z,1016.5
2016-08-31T00:53:13.579Z,1016.46
2016-08-31T00:54:13.571Z,1016.49
2016-08-31T00:55:13.551Z,1016.44
2016-08-31T00:56:13.539Z,1016.42
2016-08-31T00:57:13.532Z,1016.42
2016-08-31T00:58:13.512Z,1016.39
2016-08-31T00:59:13.502Z,1016.39
2016-08-31T01:00:13.487Z,1016.35
2016-08-31T01:01:13.469Z,1016.42
2016-08-31T01:02:13.461Z,1016.4
2016-08-31T01:03:13.451Z,1016.35
2016-08-31T01:04:13.428Z,1016.38
2016-08-31T01:05:13.422Z,1016.35
2016-08-31T01:06:13.405Z,1016.34
2016-08-31T01:07:13.391Z,1016.31
2016-08-31T01:08:13.381Z,1016.31
2016-08-31T01:09:13.356Z,1016.3
2016-08-31T01:10:13.352Z,1016.3
2016-08-31T01:11:13.331Z,1016.31
2016-08-31T01:12:13.322Z,1016.28
2016-08-31T01:13:13.311Z,1016.27
2016-08-31T01:14:13.292Z,1016.26
2016-08-31T01:15:13.279Z,1016.24
2016-08-31T01:16:13.261Z,1016.28
2016-08-31T01:17:13.252Z,1016.24
2016-08-31T01:18:13.234Z,1016.23
2016-08-31T01:19:13.220Z,1016.24
2016-08-31T01:20:13.211Z,1016.21
2016-08-31T01:21:13.190Z,1016.22
2016-08-31T01:22:13.178Z,1016.21
2016-08-31T01:23:13.170Z,1016.18
2016-08-31T01:24:13.151Z,1016.18
2016-08-31T01:25:13.137Z,1016.23
2016-08-31T01:26:13.121Z,1016.16
2016-08-31T01:27:13.105Z,1016.17
2016-08-31T01:28:13.102Z,1016.16
2016-08-31T01:29:13.080Z,1016.12
2016-08-31T01:30:13.063Z,1016.17
2016-08-31T01:31:13.051Z,1016.17
2016-08-31T01:32:13.040Z,1016.12
2016-08-31T01:33:13.024Z,1016.11
2016-08-31T01:34:13.012Z,1016.07
2016-08-31T01:35:12.998Z,1016.06
2016-08-31T01:36:12.978Z,1016.11
2016-08-31T01:37:12.970Z,1016.06
2016-08-31T01:38:12.961Z,1016.02
2016-08-31T01:39:12.940Z,1016.06
2016-08-31T01:40:13.151Z,1016.05
2016-08-31T01:41:12.912Z,1016.04
2016-08-31T01:42:12.901Z,1016.08
2016-08-31T01:43:12.881Z,1016.07
2016-08-31T01:44:12.870Z,1016.06
2016-08-31T01:45:12.853Z,1016.06
2016-08-31T01:46:12.837Z,1016.06
2016-08-31T01:47:12.825Z,1016.06
2016-08-31T01:48:12.811Z,1016.05
2016-08-31T01:49:12.800Z,1016.08
2016-08-31T01:50:12.792Z,1016.07
2016-08-31T01:51:12.774Z,1016.06
2016-08-31T01:52:12.764Z,1016.01
2016-08-31T01:53:12.740Z,1016.02
2016-08-31T01:54:12.728Z,1015.97
2016-08-31T01:55:12.721Z,1016
2016-08-31T01:56:12.699Z,1015.94
2016-08-31T01:57:12.686Z,1015.96
2016-08-31T01:58:12.667Z,1015.95
2016-08-31T01:59:12.661Z,1015.94
2016-08-31T02:00:12.639Z,1015.94
2016-08-31T02:01:12.631Z,1015.95
2016-08-31T02:02:12.617Z,1015.96
2016-08-31T02:03:12.602Z,1015.98
2016-08-31T02:04:12.584Z,1015.96
2016-08-31T02:05:12.570Z,1015.95
2016-08-31T02:06:12.570Z,1015.91
2016-08-31T02:07:12.544Z,1015.93
2016-08-31T02:08:12.531Z,1015.95
2016-08-31T02:09:12.511Z,1015.96
2016-08-31T02:10:12.501Z,1015.91
2016-08-31T02:11:12.486Z,1015.92
2016-08-31T02:12:12.469Z,1015.9
2016-08-31T02:13:12.459Z,1015.9
2016-08-31T02:14:12.440Z,1015.86
2016-08-31T02:15:12.431Z,1015.84
2016-08-31T02:16:12.408Z,1015.82
2016-08-31T02:17:12.400Z,1015.83
2016-08-31T02:18:12.385Z,1015.81
2016-08-31T02:19:12.372Z,1015.8
2016-08-31T02:20:12.354Z,1015.77
2016-08-31T02:21:12.340Z,1015.77
2016-08-31T02:22:12.331Z,1015.81
2016-08-31T02:23:12.311Z,1015.79
2016-08-31T02:24:12.298Z,1015.73
2016-08-31T02:25:12.284Z,1015.77
2016-08-31T02:26:12.270Z,1015.74
2016-08-31T02:27:12.251Z,1015.72
2016-08-31T02:28:12.237Z,1015.74
2016-08-31T02:29:12.227Z,1015.72
2016-08-31T02:30:12.227Z,1015.71
2016-08-31T02:31:12.194Z,1015.71
2016-08-31T02:32:12.190Z,1015.67
2016-08-31T02:33:12.163Z,1015.66
2016-08-31T02:34:12.150Z,1015.69
2016-08-31T02:35:12.140Z,1015.67
2016-08-31T02:36:12.128Z,1015.66
2016-08-31T02:37:12.105Z,1015.66
2016-08-31T02:38:12.089Z,1015.66
2016-08-31T02:39:12.079Z,1015.61
2016-08-31T02:40:12.068Z,1015.62
2016-08-31T02:41:12.051Z,1015.61
2016-08-31T02:42:12.034Z,1015.58
2016-08-31T02:43:12.030Z,1015.57
2016-08-31T02:44:12.006Z,1015.59
2016-08-31T02:45:11.989Z,1015.58
2016-08-31T02:46:11.974Z,1015.58
2016-08-31T02:47:11.961Z,1015.56
2016-08-31T02:48:11.950Z,1015.54
2016-08-31T02:49:11.931Z,1015.54
2016-08-31T02:50:11.919Z,1015.56
2016-08-31T02:51:11.910Z,1015.56
2016-08-31T02:52:11.891Z,1015.56
2016-08-31T02:53:11.876Z,1015.55
2016-08-31T02:54:11.859Z,1015.5
2016-08-31T02:55:11.850Z,1015.51
2016-08-31T02:56:11.829Z,1015.51
2016-08-31T02:57:11.816Z,1015.52
2016-08-31T02:58:11.800Z,1015.51
2016-08-31T02:59:11.785Z,1015.46
2016-08-31T03:00:11.771Z,1015.47
2016-08-31T03:01:11.755Z,1015.48
2016-08-31T03:02:11.742Z,1015.43
2016-08-31T03:03:11.723Z,1015.46
2016-08-31T03:04:11.710Z,1015.41
2016-08-31T03:05:11.698Z,1015.42
2016-08-31T03:06:11.681Z,1015.41
2016-08-31T03:07:11.669Z,1015.41
2016-08-31T03:08:11.661Z,1015.43
2016-08-31T03:09:11.642Z,1015.39
2016-08-31T03:10:11.628Z,1015.37
2016-08-31T03:11:11.610Z,1015.39
2016-08-31T03:12:11.595Z,1015.36
2016-08-31T03:13:11.581Z,1015.44
2016-08-31T03:14:11.565Z,1015.4
2016-08-31T03:15:11.553Z,1015.36
2016-08-31T03:16:11.531Z,1015.37
2016-08-31T03:17:11.525Z,1015.33
2016-08-31T03:18:11.506Z,1015.38
2016-08-31T03:19:11.491Z,1015.36
2016-08-31T03:20:11.473Z,1015.35
2016-08-31T03:21:11.460Z,1015.34
2016-08-31T03:22:11.451Z,1015.37
2016-08-31T03:23:11.432Z,1015.37
2016-08-31T03:24:11.411Z,1015.4
2016-08-31T03:25:11.398Z,1015.38
2016-08-31T03:26:11.391Z,1015.42
2016-08-31T03:27:11.370Z,1015.43
2016-08-31T03:28:11.354Z,1015.45
2016-08-31T03:29:11.341Z,1015.45
2016-08-31T03:30:11.331Z,1015.42
2016-08-31T03:31:11.310Z,1015.42
2016-08-31T03:32:11.294Z,1015.43
2016-08-31T03:33:11.279Z,1015.43
2016-08-31T03:34:11.263Z,1015.43
2016-08-31T03:35:11.250Z,1015.41
2016-08-31T03:36:11.242Z,1015.42
2016-08-31T03:37:11.218Z,1015.4
2016-08-31T03:38:11.205Z,1015.37
2016-08-31T03:39:11.187Z,1015.39
2016-08-31T03:40:11.173Z,1015.38
2016-08-31T03:41:11.160Z,1015.37
2016-08-31T03:42:11.151Z,1015.37
2016-08-31T03:43:11.130Z,1015.35
2016-08-31T03:44:11.115Z,1015.39
2016-08-31T03:45:11.104Z,1015.38
2016-08-31T03:46:11.092Z,1015.33
2016-08-31T03:47:11.071Z,1015.34
2016-08-31T03:48:11.061Z,1015.35
2016-08-31T03:49:11.038Z,1015.34
2016-08-31T03:50:11.028Z,1015.33
2016-08-31T03:51:11.012Z,1015.31
2016-08-31T03:52:10.998Z,1015.3
2016-08-31T03:53:10.981Z,1015.31
2016-08-31T03:54:10.961Z,1015.3
2016-08-31T03:55:10.950Z,1015.31
2016-08-31T03:56:10.931Z,1015.31
2016-08-31T03:57:10.918Z,1015.32
2016-08-31T03:58:10.901Z,1015.3
2016-08-31T03:59:10.884Z,1015.32
2016-08-31T04:00:10.869Z,1015.32
2016-08-31T04:01:10.856Z,1015.3
2016-08-31T04:02:10.840Z,1015.29
2016-08-31T04:03:10.828Z,1015.27
2016-08-31T04:04:10.808Z,1015.27
2016-08-31T04:05:10.801Z,1015.27
2016-08-31T04:06:10.783Z,1015.3
2016-08-31T04:07:10.764Z,1015.27
2016-08-31T04:08:10.751Z,1015.27
2016-08-31T04:09:10.741Z,1015.26
2016-08-31T04:10:10.720Z,1015.25
2016-08-31T04:11:10.706Z,1015.22
2016-08-31T04:12:10.687Z,1015.22
2016-08-31T04:13:10.682Z,1015.24
2016-08-31T04:14:10.662Z,1015.24
2016-08-31T04:15:10.652Z,1015.25
2016-08-31T04:16:10.631Z,1015.26
2016-08-31T04:17:10.619Z,1015.24
2016-08-31T04:18:10.601Z,1015.22
2016-08-31T04:19:10.581Z,1015.22
2016-08-31T04:20:10.569Z,1015.21
2016-08-31T04:21:10.551Z,1015.19
2016-08-31T04:22:10.536Z,1015.25
2016-08-31T04:23:10.526Z,1015.2
2016-08-31T04:24:10.507Z,1015.2
2016-08-31T04:25:10.488Z,1015.2
2016-08-31T04:26:10.473Z,1015.23
2016-08-31T04:27:10.457Z,1015.24
2016-08-31T04:28:10.447Z,1015.26
2016-08-31T04:29:10.439Z,1015.28
2016-08-31T04:30:10.412Z,1015.23
2016-08-31T04:31:10.396Z,1015.22
2016-08-31T04:32:10.379Z,1015.25
2016-08-31T04:33:10.365Z,1015.24
2016-08-31T04:34:10.364Z,1015.18
2016-08-31T04:35:10.333Z,1015.21
2016-08-31T04:36:10.328Z,1015.23
2016-08-31T04:37:10.304Z,1015.19
2016-08-31T04:38:10.292Z,1015.16
2016-08-31T04:39:10.270Z,1015.15
2016-08-31T04:40:10.274Z,1015.15
2016-08-31T04:41:10.242Z,1015.15
2016-08-31T04:42:10.274Z,1015.15
2016-08-31T04:43:10.212Z,1015.14
2016-08-31T04:44:10.206Z,1015.12
2016-08-31T04:45:10.179Z,1015.18
2016-08-31T04:46:10.170Z,1015.16
2016-08-31T04:47:10.149Z,1015.19
2016-08-31T04:48:10.139Z,1015.15
2016-08-31T04:49:10.121Z,1015.15
2016-08-31T04:50:10.103Z,1015.17
2016-08-31T04:51:10.091Z,1015.19
2016-08-31T04:52:10.073Z,1015.16
2016-08-31T04:53:10.061Z,1015.15
2016-08-31T04:54:10.041Z,1015.12
2016-08-31T04:55:10.029Z,1015.14
2016-08-31T04:56:10.011Z,1015.14
2016-08-31T04:57:09.998Z,1015.14
2016-08-31T04:58:09.982Z,1015.16
2016-08-31T04:59:09.971Z,1015.12
2016-08-31T05:00:09.950Z,1015.11
2016-08-31T05:01:09.934Z,1015.1
2016-08-31T05:02:09.917Z,1015.09
2016-08-31T05:03:09.899Z,1015.08
2016-08-31T05:04:09.887Z,1015.09
2016-08-31T05:05:09.871Z,1015.08
2016-08-31T05:06:09.853Z,1015.07
2016-08-31T05:07:09.839Z,1015.07
2016-08-31T05:08:09.823Z,1015.11
2016-08-31T05:09:09.809Z,1015.09
2016-08-31T05:10:09.790Z,1015.07
2016-08-31T05:11:09.775Z,1015.06
2016-08-31T05:12:09.761Z,1015.07
2016-08-31T05:13:09.753Z,1015.07
2016-08-31T05:14:09.732Z,1015.04
2016-08-31T05:15:09.715Z,1015.05
2016-08-31T05:16:09.707Z,1015.06
2016-08-31T05:17:09.691Z,1015.05
2016-08-31T05:18:09.667Z,1015.06
2016-08-31T05:19:09.659Z,1015.04
2016-08-31T05:20:09.641Z,1015.05
2016-08-31T05:21:09.623Z,1015
2016-08-31T05:22:09.613Z,1014.99
2016-08-31T05:23:09.591Z,1015.02
2016-08-31T05:24:09.582Z,1015
2016-08-31T05:25:09.559Z,1015.02
2016-08-31T05:26:09.543Z,1015.01
2016-08-31T05:27:09.531Z,1015.02
2016-08-31T05:28:09.517Z,1015
2016-08-31T05:29:09.495Z,1014.98
2016-08-31T05:30:09.486Z,1015.01
2016-08-31T05:31:09.470Z,1015.02
2016-08-31T05:32:09.452Z,1015.04
2016-08-31T05:33:09.439Z,1015.04
2016-08-31T05:34:09.420Z,1015.04
2016-08-31T05:35:09.408Z,1015.01
2016-08-31T05:36:09.390Z,1014.99
2016-08-31T05:37:09.376Z,1015
2016-08-31T05:38:09.359Z,1014.99
2016-08-31T05:39:09.340Z,1014.97
2016-08-31T05:40:09.329Z,1014.96
2016-08-31T05:41:09.317Z,1015.02
2016-08-31T05:42:09.292Z,1014.99
2016-08-31T05:43:09.278Z,1014.97
2016-08-31T05:44:09.269Z,1014.99
2016-08-31T05:45:09.251Z,1014.96
2016-08-31T05:46:09.233Z,1014.99
2016-08-31T05:47:09.216Z,1014.99
2016-08-31T05:48:09.200Z,1014.97
2016-08-31T05:49:09.190Z,1014.96
2016-08-31T05:50:09.171Z,1015
2016-08-31T05:51:09.160Z,1014.96
2016-08-31T05:52:09.138Z,1014.95
2016-08-31T05:53:09.127Z,1014.97
2016-08-31T05:54:09.111Z,1014.96
2016-08-31T05:55:09.094Z,1014.93
2016-08-31T05:56:09.079Z,1014.93
2016-08-31T05:57:09.063Z,1014.94
2016-08-31T05:58:09.051Z,1014.94
2016-08-31T05:59:09.036Z,1014.94
2016-08-31T06:00:09.020Z,1014.93
2016-08-31T06:01:09.000Z,1014.96
2016-08-31T06:02:08.990Z,1014.95
2016-08-31T06:03:08.970Z,1014.96
2016-08-31T06:04:08.954Z,1014.99
2016-08-31T06:05:08.941Z,1014.97
2016-08-31T06:06:08.929Z,1014.97
2016-08-31T06:07:08.910Z,1014.95
2016-08-31T06:08:08.898Z,1014.95
2016-08-31T06:09:08.877Z,1014.91
2016-08-31T06:10:08.863Z,1014.94
2016-08-31T06:11:08.849Z,1014.94
2016-08-31T06:12:08.829Z,1014.9
2016-08-31T06:13:08.825Z,1014.93
2016-08-31T06:14:08.801Z,1014.87
2016-08-31T06:15:08.787Z,1014.87
2016-08-31T06:16:08.766Z,1014.88
2016-08-31T06:17:08.754Z,1014.87
2016-08-31T06:18:08.751Z,1014.9
2016-08-31T06:19:08.723Z,1014.89
2016-08-31T06:20:08.709Z,1014.89
2016-08-31T06:21:08.691Z,1014.91
2016-08-31T06:22:08.681Z,1014.89
2016-08-31T06:23:08.666Z,1014.91
2016-08-31T06:24:08.648Z,1014.86
2016-08-31T06:25:08.636Z,1014.87
2016-08-31T06:26:08.615Z,1014.84
2016-08-31T06:27:08.602Z,1014.86
2016-08-31T06:28:08.589Z,1014.84
2016-08-31T06:29:08.585Z,1014.83
2016-08-31T06:30:08.560Z,1014.84
2016-08-31T06:31:08.550Z,1014.86
2016-08-31T06:32:08.529Z,1014.87
2016-08-31T06:33:08.516Z,1014.83
2016-08-31T06:34:08.497Z,1014.82
2016-08-31T06:35:08.490Z,1014.84
2016-08-31T06:36:08.469Z,1014.8
2016-08-31T06:37:08.454Z,1014.83
2016-08-31T06:38:08.439Z,1014.8
2016-08-31T06:39:08.422Z,1014.85
2016-08-31T06:40:08.406Z,1014.87
2016-08-31T06:41:08.396Z,1014.87
2016-08-31T06:42:08.376Z,1014.9
2016-08-31T06:43:08.375Z,1014.88
2016-08-31T06:44:08.346Z,1014.88
2016-08-31T06:45:08.373Z,1014.89
2016-08-31T06:46:08.312Z,1014.89
2016-08-31T06:47:08.309Z,1014.91
2016-08-31T06:48:08.286Z,1014.92
2016-08-31T06:49:08.277Z,1014.95
2016-08-31T06:50:08.256Z,1014.98
2016-08-31T06:51:08.247Z,1015.04
2016-08-31T06:52:08.226Z,1015.04
2016-08-31T06:53:08.236Z,1015.03
2016-08-31T06:54:08.197Z,1015.09
2016-08-31T06:55:08.186Z,1015.15
2016-08-31T06:56:08.168Z,1015.17
2016-08-31T06:57:08.159Z,1015.18
2016-08-31T06:58:08.148Z,1015.17
2016-08-31T06:59:08.135Z,1015.18
2016-08-31T07:00:08.295Z,1015.13
2016-08-31T07:01:08.117Z,1015.14
2016-08-31T07:02:08.103Z,1015.19
2016-08-31T07:03:08.098Z,1015.13
2016-08-31T07:04:08.085Z,1015.12
2016-08-31T07:05:08.090Z,1015.1
2016-08-31T07:06:08.076Z,1015.09
2016-08-31T07:07:08.064Z,1015.08
2016-08-31T07:08:08.057Z,1015.06
2016-08-31T07:09:08.048Z,1015.04
2016-08-31T07:10:08.047Z,1015.05
2016-08-31T07:11:08.032Z,1015.09
2016-08-31T07:12:08.028Z,1015.13
2016-08-31T07:13:08.024Z,1015.16
2016-08-31T07:14:08.016Z,1015.2
2016-08-31T07:15:08.018Z,1015.21
2016-08-31T07:16:08.001Z,1015.26
2016-08-31T07:17:07.998Z,1015.27
2016-08-31T07:18:07.987Z,1015.28
2016-08-31T07:19:07.980Z,1015.26
2016-08-31T07:20:07.975Z,1015.3
2016-08-31T07:21:07.968Z,1015.29
2016-08-31T07:22:07.960Z,1015.29
2016-08-31T07:23:07.958Z,1015.32
2016-08-31T07:24:07.945Z,1015.31
2016-08-31T07:25:07.939Z,1015.27
2016-08-31T07:26:07.935Z,1015.27
2016-08-31T07:27:07.929Z,1015.3
2016-08-31T07:28:07.924Z,1015.39
2016-08-31T07:29:07.917Z,1015.54
2016-08-31T07:30:07.905Z,1015.57
2016-08-31T07:31:07.902Z,1015.58
2016-08-31T07:32:07.898Z,1015.57
2016-08-31T07:33:07.903Z,1015.54
2016-08-31T07:34:07.885Z,1015.53
2016-08-31T07:35:07.878Z,1015.47
2016-08-31T07:36:07.878Z,1015.43
2016-08-31T07:37:07.867Z,1015.37
2016-08-31T07:38:07.862Z,1015.4
2016-08-31T07:39:07.858Z,1015.37
2016-08-31T07:40:07.854Z,1015.39
2016-08-31T07:41:07.848Z,1015.36
2016-08-31T07:42:07.845Z,1015.37
2016-08-31T07:43:07.838Z,1015.38
2016-08-31T07:44:07.838Z,1015.32
2016-08-31T07:45:07.833Z,1015.35
2016-08-31T07:46:07.827Z,1015.29
2016-08-31T07:47:07.826Z,1015.31
2016-08-31T07:48:07.820Z,1015.31
2016-08-31T07:49:07.816Z,1015.3
2016-08-31T07:50:07.816Z,1015.3
2016-08-31T07:51:07.816Z,1015.31
2016-08-31T07:52:07.820Z,1015.29
2016-08-31T07:53:07.816Z,1015.28
2016-08-31T07:54:07.817Z,1015.3
2016-08-31T07:55:07.805Z,1015.31
2016-08-31T07:56:07.810Z,1015.28
2016-08-31T07:57:07.809Z,1015.22
2016-08-31T07:58:07.809Z,1015.26
2016-08-31T07:59:07.810Z,1015.27
2016-08-31T08:00:07.819Z,1015.25
2016-08-31T08:01:07.810Z,1015.21
2016-08-31T08:02:07.816Z,1015.21
2016-08-31T08:03:07.807Z,1015.23
2016-08-31T08:04:07.894Z,1015.22
2016-08-31T08:05:08.654Z,1015.23
2016-08-31T08:06:07.837Z,1015.18
2016-08-31T08:07:09.828Z,1015.19
2016-08-31T08:08:07.808Z,1015.15
2016-08-31T08:09:07.819Z,1015.2
2016-08-31T08:10:07.810Z,1015.2
2016-08-31T08:11:07.819Z,1015.17
2016-08-31T08:12:07.813Z,1015.2
2016-08-31T08:13:07.816Z,1015.19
2016-08-31T08:14:07.817Z,1015.17
2016-08-31T08:15:07.817Z,1015.13
2016-08-31T08:16:07.818Z,1015.17
2016-08-31T08:17:07.819Z,1015.15
2016-08-31T08:18:07.822Z,1015.13
2016-08-31T08:19:07.828Z,1015.16
2016-08-31T08:20:07.824Z,1015.12
2016-08-31T08:21:07.828Z,1015.13
2016-08-31T08:22:07.826Z,1015.13
2016-08-31T08:23:07.835Z,1015.15
2016-08-31T08:24:07.841Z,1015.17
2016-08-31T08:25:07.838Z,1015.14
2016-08-31T08:26:07.847Z,1015.14
2016-08-31T08:27:07.840Z,1015.16
2016-08-31T08:28:07.841Z,1015.14
2016-08-31T08:29:07.847Z,1015.17
2016-08-31T08:30:07.844Z,1015.15
2016-08-31T08:31:07.849Z,1015.15
2016-08-31T08:32:07.848Z,1015.13
2016-08-31T08:33:07.850Z,1015.12
2016-08-31T08:34:07.867Z,1015.09
2016-08-31T08:35:07.852Z,1015.09
2016-08-31T08:36:07.858Z,1015.12
2016-08-31T08:37:07.855Z,1015.1
2016-08-31T08:38:07.859Z,1015.08
2016-08-31T08:39:07.860Z,1015.09
2016-08-31T08:40:07.861Z,1015.1
2016-08-31T08:41:07.866Z,1015.1
2016-08-31T08:42:07.866Z,1015.09
2016-08-31T08:43:07.869Z,1015.08
2016-08-31T08:44:07.877Z,1015.05
2016-08-31T08:45:07.877Z,1015.08
2016-08-31T08:46:07.899Z,1015.07
2016-08-31T08:47:07.878Z,1015.05
2016-08-31T08:48:07.891Z,1015.08
2016-08-31T08:49:07.890Z,1015.08
2016-08-31T08:50:07.888Z,1015.07
2016-08-31T08:51:07.890Z,1015.05
2016-08-31T08:52:07.897Z,1015.09
2016-08-31T08:53:07.896Z,1015.05
2016-08-31T08:54:07.899Z,1015.07
2016-08-31T08:55:07.935Z,1015.04
2016-08-31T08:56:07.903Z,1015.07
2016-08-31T08:57:07.902Z,1015.07
2016-08-31T08:58:07.907Z,1015.05
2016-08-31T08:59:07.903Z,1015.09
2016-08-31T09:00:10.708Z,1015.09
2016-08-31T09:01:07.914Z,1015.09
2016-08-31T09:02:07.918Z,1015.05
2016-08-31T09:03:07.917Z,1015.05
2016-08-31T09:04:07.970Z,1015.07
2016-08-31T09:05:07.924Z,1015.09
2016-08-31T09:06:07.923Z,1015.06
2016-08-31T09:07:07.931Z,1015.05
2016-08-31T09:08:07.924Z,1015.05
2016-08-31T09:09:07.932Z,1015.03
2016-08-31T09:10:08.006Z,1015.02
2016-08-31T09:11:07.928Z,1015
2016-08-31T09:12:07.940Z,1015
2016-08-31T09:13:07.938Z,1014.97
2016-08-31T09:14:07.954Z,1014.96
2016-08-31T09:15:07.941Z,1014.98
2016-08-31T09:16:07.942Z,1014.97
2016-08-31T09:17:07.950Z,1014.93
2016-08-31T09:18:07.947Z,1014.93
2016-08-31T09:19:07.953Z,1014.89
2016-08-31T09:20:07.957Z,1014.88
2016-08-31T09:21:07.961Z,1014.89
2016-08-31T09:22:07.961Z,1014.88
2016-08-31T09:23:07.968Z,1014.86
2016-08-31T09:24:07.967Z,1014.85
2016-08-31T09:25:07.968Z,1014.84
2016-08-31T09:26:07.973Z,1014.79
2016-08-31T09:27:07.975Z,1014.8
2016-08-31T09:28:07.980Z,1014.82
2016-08-31T09:29:07.982Z,1014.8
2016-08-31T09:30:07.988Z,1014.78
2016-08-31T09:31:07.986Z,1014.79
2016-08-31T09:32:07.991Z,1014.8
2016-08-31T09:33:07.991Z,1014.82
2016-08-31T09:34:07.992Z,1014.78
2016-08-31T09:35:08.001Z,1014.79
2016-08-31T09:36:08.010Z,1014.78
2016-08-31T09:37:08.006Z,1014.76
2016-08-31T09:38:08.022Z,1014.76
2016-08-31T09:39:08.005Z,1014.71
2016-08-31T09:40:08.014Z,1014.73
2016-08-31T09:41:08.009Z,1014.72
2016-08-31T09:42:08.014Z,1014.68
2016-08-31T09:43:08.019Z,1014.67
2016-08-31T09:44:08.019Z,1014.7
2016-08-31T09:45:08.018Z,1014.67
2016-08-31T09:46:08.029Z,1014.72
2016-08-31T09:47:08.026Z,1014.71
2016-08-31T09:48:08.026Z,1014.7
2016-08-31T09:49:08.029Z,1014.67
2016-08-31T09:50:08.036Z,1014.66
2016-08-31T09:51:08.035Z,1014.7
2016-08-31T09:52:08.039Z,1014.67
2016-08-31T09:53:08.039Z,1014.63
2016-08-31T09:54:08.038Z,1014.63
2016-08-31T09:55:08.048Z,1014.68
2016-08-31T09:56:08.047Z,1014.68
2016-08-31T09:57:08.044Z,1014.71
2016-08-31T09:58:08.048Z,1014.68
2016-08-31T09:59:08.057Z,1014.66
2016-08-31T10:00:08.060Z,1014.65
2016-08-31T10:01:08.051Z,1014.63
2016-08-31T10:02:08.050Z,1014.62
2016-08-31T10:03:08.057Z,1014.57
2016-08-31T10:04:08.057Z,1014.55
2016-08-31T10:05:08.058Z,1014.54
2016-08-31T10:06:08.063Z,1014.54
2016-08-31T10:07:08.057Z,1014.56
2016-08-31T10:08:08.059Z,1014.54
2016-08-31T10:09:08.056Z,1014.54
2016-08-31T10:10:08.059Z,1014.52
2016-08-31T10:11:08.057Z,1014.52
2016-08-31T10:12:08.057Z,1014.52
2016-08-31T10:13:08.060Z,1014.55
2016-08-31T10:14:08.056Z,1014.54
2016-08-31T10:15:08.056Z,1014.49
2016-08-31T10:16:08.057Z,1014.52
2016-08-31T10:17:08.049Z,1014.5
2016-08-31T10:18:08.051Z,1014.5
2016-08-31T10:19:08.046Z,1014.48
2016-08-31T10:20:08.046Z,1014.47
2016-08-31T10:21:08.050Z,1014.46
2016-08-31T10:22:08.049Z,1014.41
2016-08-31T10:23:08.051Z,1014.41
2016-08-31T10:24:08.038Z,1014.41
2016-08-31T10:25:08.040Z,1014.39
2016-08-31T10:26:08.038Z,1014.37
2016-08-31T10:27:08.040Z,1014.4
2016-08-31T10:28:08.034Z,1014.39
2016-08-31T10:29:08.029Z,1014.41
2016-08-31T10:30:08.722Z,1014.39
2016-08-31T10:31:08.027Z,1014.36
2016-08-31T10:32:08.052Z,1014.42
2016-08-31T10:33:08.017Z,1014.36
2016-08-31T10:34:08.014Z,1014.39
2016-08-31T10:35:08.019Z,1014.35
2016-08-31T10:36:08.017Z,1014.35
2016-08-31T10:37:08.009Z,1014.34
2016-08-31T10:38:08.010Z,1014.39
2016-08-31T10:39:08.005Z,1014.36
2016-08-31T10:40:08.009Z,1014.3
2016-08-31T10:41:07.999Z,1014.28
2016-08-31T10:42:07.996Z,1014.28
2016-08-31T10:43:07.997Z,1014.26
2016-08-31T10:44:07.991Z,1014.25
2016-08-31T10:45:07.985Z,1014.25
2016-08-31T10:46:07.987Z,1014.29
2016-08-31T10:47:07.989Z,1014.26
2016-08-31T10:48:07.978Z,1014.27
2016-08-31T10:49:07.976Z,1014.25
2016-08-31T10:50:07.970Z,1014.24
2016-08-31T10:51:07.964Z,1014.21
2016-08-31T10:52:07.965Z,1014.27
2016-08-31T10:53:07.966Z,1014.26
2016-08-31T10:54:07.958Z,1014.21
2016-08-31T10:55:07.960Z,1014.2
2016-08-31T10:56:07.958Z,1014.2
2016-08-31T10:57:07.949Z,1014.19
2016-08-31T10:58:07.941Z,1014.19
2016-08-31T10:59:07.939Z,1014.13
2016-08-31T11:00:07.935Z,1014.14
2016-08-31T11:01:07.935Z,1014.16
2016-08-31T11:02:07.928Z,1014.12
2016-08-31T11:03:07.930Z,1014.12
2016-08-31T11:04:07.921Z,1014.13
2016-08-31T11:05:07.921Z,1014.12
2016-08-31T11:06:07.945Z,1014.12
2016-08-31T11:07:07.906Z,1014.12
2016-08-31T11:08:07.906Z,1014.14
2016-08-31T11:09:07.903Z,1014.11
2016-08-31T11:10:07.900Z,1014.05
2016-08-31T11:11:07.896Z,1014.08
2016-08-31T11:12:07.898Z,1014.12
2016-08-31T11:13:07.888Z,1014.09
2016-08-31T11:14:07.887Z,1014.09
2016-08-31T11:15:07.878Z,1014.08
2016-08-31T11:16:07.879Z,1014.1
2016-08-31T11:17:07.879Z,1014.11
2016-08-31T11:18:07.868Z,1014.16
2016-08-31T11:19:07.869Z,1014.17
2016-08-31T11:20:07.856Z,1014.16
2016-08-31T11:21:07.856Z,1014.2
2016-08-31T11:22:07.857Z,1014.17
2016-08-31T11:23:07.847Z,1014.12
2016-08-31T11:24:07.858Z,1014.15
2016-08-31T11:25:08.680Z,1014.13
2016-08-31T11:26:07.839Z,1014.12
2016-08-31T11:27:07.839Z,1014.12
2016-08-31T11:28:07.832Z,1014.07
2016-08-31T11:29:07.831Z,1014.09
2016-08-31T11:30:07.829Z,1014.07
2016-08-31T11:31:07.817Z,1014.1
2016-08-31T11:32:07.825Z,1014.1
2016-08-31T11:33:07.818Z,1014.04
2016-08-31T11:34:07.806Z,1014.06
2016-08-31T11:35:07.812Z,1014.05
2016-08-31T11:36:07.808Z,1014.07
2016-08-31T11:37:07.800Z,1014.04
2016-08-31T11:38:07.799Z,1014.05
2016-08-31T11:39:07.793Z,1014.06
2016-08-31T11:40:07.787Z,1014.04
2016-08-31T11:41:07.790Z,1014.03
2016-08-31T11:42:07.780Z,1014.04
2016-08-31T11:43:07.780Z,1014.03
2016-08-31T11:44:07.778Z,1014
2016-08-31T11:45:07.767Z,1013.95
2016-08-31T11:46:07.768Z,1013.95
2016-08-31T11:47:07.767Z,1013.95
2016-08-31T11:48:07.757Z,1013.97
2016-08-31T11:49:07.759Z,1013.96
2016-08-31T11:50:07.757Z,1013.96
2016-08-31T11:51:07.761Z,1013.96
2016-08-31T11:52:07.740Z,1013.96
2016-08-31T11:53:07.739Z,1013.97
2016-08-31T11:54:07.739Z,1013.96
2016-08-31T11:55:07.748Z,1013.89
2016-08-31T11:56:07.729Z,1013.93
2016-08-31T11:57:07.724Z,1013.94
2016-08-31T11:58:07.729Z,1013.91
2016-08-31T11:59:07.719Z,1013.86
2016-08-31T12:00:07.718Z,1013.86
2016-08-31T12:01:07.720Z,1013.86
2016-08-31T12:02:07.707Z,1013.84
2016-08-31T12:03:07.709Z,1013.81
2016-08-31T12:04:07.698Z,1013.83
2016-08-31T12:05:07.697Z,1013.82
2016-08-31T12:06:07.697Z,1013.8
2016-08-31T12:07:07.687Z,1013.75
2016-08-31T12:08:07.687Z,1013.78